Eastland Commons, Illinois
Current Conditions -  °F | °C
As of 9:25 AM on Saturday 25 Oct 2014 (Local Time) from KBMI Reporting Station
Moderate Fog Moderate Fog  
Wind Chill: 57°   Ceiling: 100
Heat Index: 57°   Visibility: 0.12mi
Dew Point: 57°   Wind: 8mph
Humidity: 100%   Direction: 290°WNW
Pressure: 30.02"   Gusts: NA
Location:  40.4766°N, 88.992°W
Report Text: KBMI 251425Z 29007KT 1/8SM R29/1600V2400FT FG OVC001 14/14 A3002 RMK AO2
Loading
Personal Weather Stations






























Interactive Weather Map
Tropical Storm Tracking
New forecast layout! Learn more

10-Day Weather Forecast

Advertisements
Track Severe Weather on mobile